Time;durP1;ratioP1;P1;durP2;ratioP2;P2;SDS_P1;SDS_P2;PMS_P1;PMS_P2;Temp;Humidity;BMP_temperature;BMP_pressure;BME280_temperature;BME280_humidity;BME280_pressure;Samples;Min_cycle;Max_cycle;Signal;HPM_P1;HPM_P2
2022/06/09 00:02:22;;;;;;;2.75;1.00;;;14.70;99.90;;;;;;4665455;28;10000653;-76
2022/06/09 00:04:48;;;;;;;1.90;1.00;;;14.70;99.90;;;;;;5026389;28;20030;-76
2022/06/09 00:07:16;;;;;;;1.95;1.50;;;14.60;99.90;;;;;;5016785;28;20025;-76
2022/06/09 00:09:47;;;;;;;2.05;1.20;;;14.60;99.90;;;;;;5017694;28;20088;-75
2022/06/09 00:12:13;;;;;;;3.25;1.35;;;14.70;99.90;;;;;;5022859;28;20033;-76
2022/06/09 00:14:40;;;;;;;2.63;1.30;;;14.60;99.90;;;;;;5017305;28;20112;-76
2022/06/09 00:17:06;;;;;;;3.63;1.30;;;14.60;99.90;;;;;;5020357;28;20075;-75
2022/06/09 00:19:32;;;;;;;4.55;1.30;;;14.60;99.90;;;;;;5015734;28;20025;-76
2022/06/09 00:21:58;;;;;;;2.10;1.17;;;14.70;99.90;;;;;;5018769;28;20099;-75
2022/06/09 00:24:24;;;;;;;5.18;1.40;;;14.70;99.90;;;;;;5014210;28;20029;-76
2022/06/09 00:26:50;;;;;;;1.67;1.00;;;14.60;99.90;;;;;;5018110;28;20026;-76
2022/06/09 00:29:16;;;;;;;2.75;1.02;;;14.60;99.90;;;;;;5018530;28;20083;-75
2022/06/09 00:31:41;;;;;;;3.53;1.52;;;14.60;99.90;;;;;;5015103;28;20092;-75
2022/06/09 00:34:07;;;;;;;2.72;1.27;;;14.60;99.90;;;;;;5019850;28;20042;-75
2022/06/09 00:36:33;;;;;;;1.42;1.10;;;14.60;99.90;;;;;;5023666;28;20030;-75
2022/06/09 00:38:59;;;;;;;3.30;1.20;;;14.50;99.90;;;;;;5025968;28;20468;-75
2022/06/09 00:41:26;;;;;;;2.15;1.10;;;14.50;99.90;;;;;;5022679;28;20529;-75
2022/06/09 00:43:52;;;;;;;4.15;1.38;;;14.50;99.90;;;;;;5017611;28;20034;-76
2022/06/09 00:46:27;;;;;;;1.15;1.05;;;14.40;99.90;;;;;;5015371;28;20088;-76
2022/06/09 00:49:06;;;;;;;1.63;1.10;;;14.50;99.90;;;;;;5024997;28;20080;-75
2022/06/09 00:51:42;;;;;;;2.70;1.42;;;14.40;99.90;;;;;;5011950;28;20033;-76
2022/06/09 00:54:25;;;;;;;3.35;1.40;;;14.40;99.90;;;;;;5027697;28;20030;-76
2022/06/09 00:56:58;;;;;;;2.28;1.30;;;14.40;99.90;;;;;;5022477;28;20057;-76
2022/06/09 00:59:26;;;;;;;3.67;1.98;;;14.40;99.90;;;;;;5025637;28;20548;-76
2022/06/09 01:01:53;;;;;;;2.38;1.50;;;14.40;99.90;;;;;;5026062;28;20052;-75
2022/06/09 01:04:20;;;;;;;2.17;1.52;;;14.40;99.90;;;;;;5026974;28;20032;-76
2022/06/09 01:06:54;;;;;;;1.60;1.50;;;14.30;99.90;;;;;;5026370;28;20022;-76
2022/06/09 01:09:22;;;;;;;3.65;2.22;;;14.30;99.90;;;;;;5009840;28;20052;-76
2022/06/09 01:11:49;;;;;;;5.43;2.20;;;14.20;99.90;;;;;;5027227;28;20036;-76
2022/06/09 01:14:19;;;;;;;5.80;2.70;;;14.20;99.90;;;;;;5020913;28;20034;-76
2022/06/09 01:17:00;;;;;;;6.78;2.53;;;14.20;99.90;;;;;;5025821;28;20096;-75
2022/06/09 01:20:04;;;;;;;3.97;2.60;;;14.20;99.90;;;;;;5013234;28;20140;-75
2022/06/09 01:22:43;;;;;;;3.97;2.72;;;14.20;99.90;;;;;;4983599;28;20103;-76
2022/06/09 01:25:09;;;;;;;6.38;3.10;;;14.10;99.90;;;;;;5019376;28;20045;-75
2022/06/09 01:28:11;;;;;;;4.45;3.08;;;14.10;99.90;;;;;;5021379;28;20026;-75
2022/06/09 01:31:09;;;;;;;6.45;3.40;;;14.10;99.90;;;;;;5020113;28;20059;-76
2022/06/09 01:33:52;;;;;;;5.38;3.72;;;14.10;99.90;;;;;;5021924;28;20042;-76
2022/06/09 01:36:36;;;;;;;6.00;3.83;;;14.10;99.90;;;;;;5008681;28;20026;-75
2022/06/09 01:39:05;;;;;;;7.05;4.40;;;14.10;99.90;;;;;;5010245;28;20489;-76
2022/06/09 01:41:31;;;;;;;5.82;4.22;;;14.00;99.90;;;;;;5009885;28;20129;-76
2022/06/09 01:43:57;;;;;;;7.60;4.20;;;14.10;99.90;;;;;;5020145;28;20033;-76
2022/06/09 01:46:30;;;;;;;9.13;4.68;;;14.10;99.90;;;;;;5025824;28;20053;-75
2022/06/09 01:49:01;;;;;;;8.27;4.70;;;14.10;99.90;;;;;;5021185;28;20037;-76
2022/06/09 01:51:31;;;;;;;8.65;5.32;;;14.10;99.90;;;;;;5021606;28;20026;-76
2022/06/09 01:54:05;;;;;;;6.03;4.70;;;14.10;99.90;;;;;;5016854;28;20038;-75
2022/06/09 01:56:45;;;;;;;6.82;4.90;;;14.10;99.90;;;;;;5026519;28;20030;-75
2022/06/09 01:59:16;;;;;;;7.70;4.88;;;14.10;99.90;;;;;;5013919;28;20576;-75
2022/06/09 02:01:49;;;;;;;8.20;5.03;;;14.00;99.90;;;;;;5019621;28;20037;-75
2022/06/09 02:04:20;;;;;;;10.57;5.57;;;14.00;99.90;;;;;;5026180;28;20301;-75
2022/06/09 02:06:48;;;;;;;9.82;5.50;;;14.00;99.90;;;;;;5014717;28;20484;-75
2022/06/09 02:09:16;;;;;;;9.63;5.85;;;14.00;99.90;;;;;;5019382;28;20056;-75
2022/06/09 02:11:56;;;;;;;8.65;5.45;;;14.00;99.90;;;;;;5026481;28;20105;-75
2022/06/09 02:14:27;;;;;;;9.65;5.47;;;13.90;99.90;;;;;;5026683;28;20401;-75
2022/06/09 02:16:53;;;;;;;14.75;5.78;;;14.00;99.90;;;;;;5022811;28;20037;-75
2022/06/09 02:19:19;;;;;;;7.47;5.75;;;13.90;99.90;;;;;;5021124;28;20116;-76
2022/06/09 02:21:45;;;;;;;7.28;5.53;;;13.90;99.90;;;;;;5022867;28;20113;-76
2022/06/09 02:24:10;;;;;;;8.13;5.68;;;13.90;99.90;;;;;;5025468;28;20385;-75
2022/06/09 02:26:36;;;;;;;8.45;5.32;;;13.90;99.90;;;;;;5017491;28;20080;-75
2022/06/09 02:29:02;;;;;;;8.25;5.57;;;13.90;99.90;;;;;;5022819;28;20018;-76
2022/06/09 02:31:28;;;;;;;8.10;5.40;;;13.90;99.90;;;;;;5017417;28;20037;-76
2022/06/09 02:33:54;;;;;;;10.73;5.43;;;13.90;99.90;;;;;;5012229;28;20100;-76
2022/06/09 02:36:21;;;;;;;7.03;5.38;;;13.80;99.90;;;;;;5006660;28;20407;-76
2022/06/09 02:38:46;;;;;;;9.10;5.70;;;13.80;99.90;;;;;;5019393;28;20095;-75
2022/06/09 02:41:12;;;;;;;10.07;6.18;;;13.80;99.90;;;;;;5009187;28;20486;-76
2022/06/09 02:43:39;;;;;;;10.10;6.20;;;13.80;99.90;;;;;;5017989;28;20476;-75
2022/06/09 02:46:05;;;;;;;10.38;6.25;;;13.80;99.90;;;;;;5029653;28;20060;-76
2022/06/09 02:48:31;;;;;;;6.90;5.97;;;13.70;99.90;;;;;;5026712;28;20060;-76
2022/06/09 02:50:57;;;;;;;6.85;5.97;;;13.70;99.90;;;;;;5021097;28;20112;-76
2022/06/09 02:53:23;;;;;;;7.70;5.85;;;13.70;99.90;;;;;;5025834;28;20108;-76
2022/06/09 02:55:50;;;;;;;9.10;5.70;;;13.70;99.90;;;;;;5018736;28;20038;-75
2022/06/09 02:58:16;;;;;;;7.03;5.53;;;13.70;99.90;;;;;;5015012;28;20032;-76
2022/06/09 03:00:43;;;;;;;7.22;5.53;;;13.70;99.90;;;;;;5014536;28;20112;-75
2022/06/09 03:03:13;;;;;;;7.40;5.43;;;13.70;99.90;;;;;;5030009;28;20034;-75
2022/06/09 03:05:39;;;;;;;7.30;5.82;;;13.70;99.90;;;;;;5027258;28;20040;-75
2022/06/09 03:08:06;;;;;;;6.72;4.80;;;13.60;99.90;;;;;;5016979;28;20030;-75
2022/06/09 03:10:33;;;;;;;6.45;4.68;;;13.60;99.90;;;;;;5023735;28;20057;-75
2022/06/09 03:12:58;;;;;;;7.95;4.80;;;13.60;99.90;;;;;;5021550;28;20029;-75
2022/06/09 03:15:25;;;;;;;9.05;4.93;;;13.60;99.90;;;;;;5027159;28;20179;-75
2022/06/09 03:17:51;;;;;;;8.07;5.38;;;13.50;99.90;;;;;;5023101;28;20029;-75
2022/06/09 03:20:22;;;;;;;6.30;4.47;;;13.50;99.90;;;;;;5024880;28;20402;-75
2022/06/09 03:22:48;;;;;;;8.43;4.90;;;13.50;99.90;;;;;;5023137;28;20114;-75
2022/06/09 03:25:14;;;;;;;9.13;5.22;;;13.50;99.90;;;;;;5015814;28;20108;-75
2022/06/09 03:27:40;;;;;;;6.25;4.28;;;13.50;99.90;;;;;;5029610;28;20271;-75
2022/06/09 03:30:07;;;;;;;5.40;4.13;;;13.50;99.90;;;;;;5023645;28;20053;-75
2022/06/09 03:32:33;;;;;;;9.88;4.65;;;13.40;99.90;;;;;;5024321;28;20506;-75
2022/06/09 03:35:00;;;;;;;9.75;4.80;;;13.40;99.90;;;;;;5017723;28;20061;-75
2022/06/09 03:37:25;;;;;;;10.38;5.13;;;13.40;99.90;;;;;;5027011;28;20034;-75
2022/06/09 03:39:51;;;;;;;11.15;5.10;;;13.40;99.90;;;;;;5025450;28;20029;-76
2022/06/09 03:42:17;;;;;;;10.07;4.75;;;13.40;99.90;;;;;;5024595;28;20533;-75
2022/06/09 03:44:42;;;;;;;9.13;5.35;;;13.40;99.90;;;;;;5026492;28;20113;-75
2022/06/09 03:47:10;;;;;;;6.25;4.45;;;13.40;99.90;;;;;;5017684;28;20033;-75
2022/06/09 03:49:36;;;;;;;6.45;4.60;;;13.40;99.90;;;;;;5027046;28;20091;-75
2022/06/09 03:52:02;;;;;;;9.00;5.10;;;13.50;99.90;;;;;;5026486;28;20489;-76
2022/06/09 03:54:27;;;;;;;8.38;4.82;;;13.50;99.90;;;;;;5023808;28;20105;-75
2022/06/09 03:56:53;;;;;;;9.32;4.95;;;13.50;99.90;;;;;;5016973;28;20061;-75
2022/06/09 03:59:19;;;;;;;9.40;5.43;;;13.50;99.90;;;;;;5022629;28;20430;-75
2022/06/09 04:01:45;;;;;;;15.20;5.63;;;13.50;99.90;;;;;;5025536;28;20025;-75
2022/06/09 04:04:10;;;;;;;10.80;5.18;;;13.50;99.90;;;;;;5019548;28;20029;-75
2022/06/09 04:06:36;;;;;;;9.13;4.72;;;13.50;99.90;;;;;;5016080;28;20032;-76
2022/06/09 04:09:03;;;;;;;11.30;4.88;;;13.50;99.90;;;;;;5026169;28;20049;-75
2022/06/09 04:11:28;;;;;;;7.47;4.72;;;13.60;99.90;;;;;;5027568;28;20033;-75
2022/06/09 04:13:54;;;;;;;9.50;4.80;;;13.80;99.90;;;;;;5024178;28;20029;-75
2022/06/09 04:16:38;;;;;;;11.13;5.50;;;14.10;99.90;;;;;;5024850;28;20079;-75
2022/06/09 04:19:07;;;;;;;10.07;5.40;;;14.10;99.90;;;;;;5024867;28;20033;-75
2022/06/09 04:21:34;;;;;;;11.80;5.90;;;13.90;99.90;;;;;;5027162;28;20375;-75
2022/06/09 04:24:00;;;;;;;10.05;5.47;;;13.90;99.90;;;;;;5023791;28;20129;-75
2022/06/09 04:26:28;;;;;;;7.75;5.68;;;13.90;99.90;;;;;;5027114;28;20108;-75
2022/06/09 04:28:54;;;;;;;11.30;5.43;;;13.90;99.90;;;;;;5018953;28;20033;-75
2022/06/09 04:31:20;;;;;;;10.27;5.47;;;13.90;99.90;;;;;;5009011;28;20032;-75
2022/06/09 04:33:46;;;;;;;10.93;5.55;;;13.90;99.90;;;;;;5016450;28;20049;-75
2022/06/09 04:36:13;;;;;;;9.63;5.38;;;13.90;99.90;;;;;;5027796;28;20036;-75
2022/06/09 04:38:39;;;;;;;9.40;5.82;;;14.00;99.90;;;;;;5020848;28;20175;-75
2022/06/09 04:41:10;;;;;;;9.10;5.20;;;14.00;99.90;;;;;;5016582;28;20451;-75
2022/06/09 04:43:37;;;;;;;11.77;5.75;;;14.10;99.90;;;;;;5015551;28;20025;-76
2022/06/09 04:46:04;;;;;;;12.60;5.70;;;14.30;99.90;;;;;;5027841;28;20101;-76
2022/06/09 04:48:31;;;;;;;11.52;5.70;;;14.50;99.90;;;;;;5021480;28;20585;-75
2022/06/09 04:50:56;;;;;;;11.18;5.40;;;14.50;99.90;;;;;;5023861;28;20513;-75
2022/06/09 04:53:22;;;;;;;13.32;5.82;;;14.70;99.90;;;;;;5027915;28;20029;-75
2022/06/09 04:55:48;;;;;;;8.48;5.50;;;14.80;99.90;;;;;;5013632;28;20052;-75
2022/06/09 04:58:14;;;;;;;16.48;5.57;;;14.90;99.90;;;;;;5014337;28;20087;-75
2022/06/09 05:00:40;;;;;;;12.25;6.03;;;15.00;99.90;;;;;;5025644;28;20314;-75
2022/06/09 05:03:11;;;;;;;7.22;5.43;;;15.10;99.90;;;;;;5027731;28;20033;-75
2022/06/09 05:05:37;;;;;;;8.38;5.13;;;15.20;99.90;;;;;;5023010;28;20218;-75
2022/06/09 05:08:03;;;;;;;9.32;6.45;;;15.30;99.90;;;;;;5018189;28;20021;-75
2022/06/09 05:10:29;;;;;;;9.13;5.57;;;15.30;99.90;;;;;;5016033;28;20125;-75
2022/06/09 05:12:56;;;;;;;8.35;5.40;;;15.30;99.90;;;;;;5024916;28;20033;-75
2022/06/09 05:15:22;;;;;;;8.95;5.53;;;15.40;99.90;;;;;;5019880;28;20605;-75
2022/06/09 05:17:51;;;;;;;8.27;5.28;;;15.50;99.90;;;;;;5019786;28;20033;-75
2022/06/09 05:20:21;;;;;;;11.82;5.80;;;15.60;99.90;;;;;;5020650;28;20037;-75
2022/06/09 05:22:47;;;;;;;8.25;5.03;;;15.70;99.90;;;;;;5022527;28;20110;-75
2022/06/09 05:25:13;;;;;;;9.40;5.00;;;15.90;99.90;;;;;;5021912;28;20042;-76
2022/06/09 05:27:40;;;;;;;9.07;5.35;;;15.90;99.90;;;;;;5026061;28;20032;-75
2022/06/09 05:30:09;;;;;;;8.65;5.47;;;15.90;99.90;;;;;;5017361;28;20032;-75
2022/06/09 05:32:34;;;;;;;8.90;5.47;;;15.80;99.90;;;;;;5020718;28;20474;-76
2022/06/09 05:35:00;;;;;;;8.57;5.55;;;15.80;99.90;;;;;;5017378;28;20033;-76
2022/06/09 05:44:50;;;;;;;9.02;5.30;;;15.90;99.90;;;;;;5025247;28;20040;-75
2022/06/09 05:45:40;;;;;;;11.80;6.30;;;16.00;99.90;;;;;;5021153;28;20470;-75
2022/06/09 05:48:06;;;;;;;9.73;5.10;;;16.00;99.90;;;;;;5022539;28;20057;-75
2022/06/09 05:50:31;;;;;;;9.65;6.10;;;16.00;99.90;;;;;;5019504;28;20018;-75
2022/06/09 05:52:57;;;;;;;11.55;6.35;;;16.10;99.90;;;;;;5026294;28;20047;-75
2022/06/09 05:55:22;;;;;;;7.53;5.25;;;16.10;99.90;;;;;;5025342;28;20029;-75
2022/06/09 05:57:48;;;;;;;12.80;5.95;;;16.20;99.90;;;;;;5014665;28;20602;-75
2022/06/09 06:00:14;;;;;;;10.98;6.13;;;16.30;99.90;;;;;;5015960;28;20103;-76
2022/06/09 06:02:40;;;;;;;10.43;6.15;;;16.40;99.90;;;;;;5024031;28;20029;-75
2022/06/09 06:06:33;;;;;;;11.30;5.95;;;16.50;99.90;;;;;;5024441;28;20029;-75
2022/06/09 06:07:51;;;;;;;10.95;6.40;;;16.70;99.90;;;;;;5020425;28;20497;-75
2022/06/09 06:10:17;;;;;;;9.60;5.93;;;16.80;99.90;;;;;;5023281;28;20045;-76
2022/06/09 06:12:42;;;;;;;13.98;6.53;;;16.90;99.90;;;;;;5022163;28;20433;-75
2022/06/09 06:15:08;;;;;;;9.30;6.30;;;17.20;99.90;;;;;;5015724;28;20417;-76
2022/06/09 06:17:34;;;;;;;10.57;5.97;;;17.30;99.90;;;;;;5024901;28;20064;-76
2022/06/09 06:19:59;;;;;;;11.30;6.57;;;17.40;99.90;;;;;;5021561;28;20036;-76
2022/06/09 06:22:25;;;;;;;9.77;6.05;;;17.50;99.90;;;;;;5013443;28;20393;-76
2022/06/09 06:24:51;;;;;;;10.35;6.30;;;17.40;99.90;;;;;;5019648;28;20033;-76
2022/06/09 06:27:17;;;;;;;13.60;7.47;;;;;;;;;;5014926;28;20026;-76
2022/06/09 06:29:43;;;;;;;13.65;6.85;;;;;;;;;;5013564;28;20021;-75
2022/06/09 06:32:09;;;;;;;10.07;6.90;;;;;;;;;;5027765;28;20037;-75
2022/06/09 06:34:35;;;;;;;8.90;7.00;;;;;;;;;;5027409;28;20069;-75
2022/06/09 06:37:01;;;;;;;13.68;7.68;;;;;;;;;;5015846;28;20533;-75
2022/06/09 06:39:27;;;;;;;10.20;7.13;;;;;;;;;;5025591;28;20034;-76
2022/06/09 06:41:53;;;;;;;12.52;7.40;;;;;;;;;;5012627;28;20036;-75
2022/06/09 06:44:19;;;;;;;12.75;7.45;;;;;;;;;;5029184;28;20033;-75
2022/06/09 06:46:45;;;;;;;11.68;7.18;;;;;;;;;;5029332;28;20030;-75
2022/06/09 06:49:11;;;;;;;11.90;7.85;;;;;;;;;;5025174;28;20030;-75
2022/06/09 06:51:37;;;;;;;12.38;6.93;;;;;;;;;;5014188;28;20539;-75
2022/06/09 06:54:05;;;;;;;11.63;7.60;;;;;;;;;;5015867;28;20034;-76
2022/06/09 06:56:31;;;;;;;12.77;6.95;;;;;;;;;;5011987;28;20490;-76
2022/06/09 06:58:57;;;;;;;12.10;6.65;;;;;;;;;;5026410;28;20037;-76
2022/06/09 07:01:23;;;;;;;13.65;6.82;;;;;;;;;;5027940;28;20513;-75
2022/06/09 07:03:49;;;;;;;10.15;6.50;;;;;;;;;;5027081;28;20041;-76
2022/06/09 07:06:15;;;;;;;14.02;6.60;;;;;;;;;;5022514;28;20028;-75
2022/06/09 07:08:41;;;;;;;13.18;6.80;;;;;;;;;;5027369;28;20029;-75
2022/06/09 07:11:08;;;;;;;10.68;6.50;;;;;;;;;;5022267;28;20551;-75
2022/06/09 07:13:36;;;;;;;9.00;5.80;;;;;;;;;;5010589;28;20038;-75
2022/06/09 07:16:02;;;;;;;10.20;8.18;;;;;;;;;;5010144;28;20028;-76
2022/06/09 07:18:28;;;;;;;10.80;6.60;;;;;;;;;;5021759;28;20026;-75
2022/06/09 07:20:54;;;;;;;11.13;6.93;;;;;;;;;;5026618;28;20021;-75
2022/06/09 07:23:21;;;;;;;9.80;6.13;;;;;;;;;;5015782;28;20485;-75
2022/06/09 07:25:47;;;;;;;8.73;5.85;;;;;;;;;;5022554;28;20061;-76
2022/06/09 07:28:13;;;;;;;8.88;6.13;;;;;;;;;;5025235;28;20057;-76
2022/06/09 07:30:40;;;;;;;8.32;5.80;;;;;;;;;;5026240;28;20019;-76
2022/06/09 07:33:06;;;;;;;7.35;5.65;;;;;;;;;;5029276;28;20060;-73
2022/06/09 07:35:33;;;;;;;7.47;5.38;;;;;;;;;;5019368;28;20021;-74
2022/06/09 07:37:59;;;;;;;9.30;5.90;;;;;;;;;;5027786;28;20429;-74
2022/06/09 07:40:25;;;;;;;6.15;5.18;;;19.50;99.90;;;;;;5020922;28;20029;-74
2022/06/09 07:42:51;;;;;;;8.18;5.57;;;19.80;99.90;;;;;;5028348;28;20500;-73
2022/06/09 07:45:17;;;;;;;8.73;5.47;;;19.80;99.90;;;;;;5010639;28;20034;-74
2022/06/09 07:47:43;;;;;;;9.30;6.05;;;19.90;99.90;;;;;;5020533;28;20059;-73
2022/06/09 07:50:10;;;;;;;12.02;5.90;;;20.00;99.90;;;;;;5017861;28;20029;-72
2022/06/09 07:52:36;;;;;;;7.70;5.07;;;20.00;99.90;;;;;;5025584;28;20026;-72
2022/06/09 07:55:03;;;;;;;7.80;5.78;;;19.80;99.90;;;;;;5010805;28;20040;-73
2022/06/09 07:57:28;;;;;;;10.40;5.35;;;19.70;99.90;;;;;;5014342;28;20540;-73
2022/06/09 07:59:54;;;;;;;9.07;5.40;;;19.60;99.90;;;;;;5025946;28;20037;-73
2022/06/09 08:02:20;;;;;;;7.47;5.60;;;19.50;99.90;;;;;;5020610;28;20040;-73
2022/06/09 08:04:45;;;;;;;9.73;6.15;;;19.40;99.90;;;;;;5014597;28;20017;-73
2022/06/09 08:07:11;;;;;;;8.18;5.43;;;19.40;99.90;;;;;;5028645;28;20076;-73
2022/06/09 08:09:36;;;;;;;9.25;5.10;;;19.30;99.90;;;;;;4674628;28;10000036;-71
2022/06/09 08:12:02;;;;;;;8.82;5.30;;;19.40;99.90;;;;;;5021994;28;20037;-74
2022/06/09 08:14:28;;;;;;;10.50;5.43;;;19.40;99.90;;;;;;5018631;28;20029;-73
2022/06/09 08:16:54;;;;;;;9.48;4.82;;;19.30;99.90;;;;;;5024778;28;20508;-73
2022/06/09 08:19:20;;;;;;;8.30;4.72;;;19.10;99.90;;;;;;5016146;28;20026;-74
2022/06/09 08:21:45;;;;;;;9.00;5.40;;;18.90;99.90;;;;;;5017396;28;20574;-74
2022/06/09 08:24:12;;;;;;;6.35;5.07;;;18.80;99.90;;;;;;5025494;28;20524;-74
2022/06/09 08:26:38;;;;;;;8.38;4.85;;;18.70;99.90;;;;;;5018666;28;20734;-75
2022/06/09 08:29:04;;;;;;;9.77;5.30;;;18.70;99.90;;;;;;5023481;28;20065;-75
2022/06/09 08:31:30;;;;;;;8.73;5.15;;;18.80;99.90;;;;;;5016540;28;20030;-75
2022/06/09 08:33:55;;;;;;;6.38;4.57;;;18.90;99.90;;;;;;5022115;28;20053;-75
2022/06/09 08:36:21;;;;;;;6.55;4.47;;;18.90;99.90;;;;;;5015097;28;20045;-76
2022/06/09 08:38:48;;;;;;;7.00;4.22;;;18.90;99.90;;;;;;5018029;28;20095;-75
2022/06/09 08:41:35;;;;;;;6.05;4.00;;;19.00;99.90;;;;;;5022630;28;20410;-75
2022/06/09 08:44:24;;;;;;;5.43;3.97;;;19.10;99.90;;;;;;5011851;28;20045;-74
2022/06/09 08:47:13;;;;;;;6.40;4.07;;;19.70;99.90;;;;;;5011052;28;20108;-75
2022/06/09 08:49:57;;;;;;;7.32;4.15;;;20.10;99.90;;;;;;5021302;28;20265;-74
2022/06/09 08:52:44;;;;;;;8.23;4.18;;;20.70;99.90;;;;;;5013260;28;20710;-73
2022/06/09 08:55:45;;;;;;;8.55;4.00;;;21.00;99.90;;;;;;5021019;28;20021;-74
2022/06/09 08:58:25;;;;;;;7.05;4.00;;;21.20;99.90;;;;;;5020088;28;20033;-74
2022/06/09 09:01:20;;;;;;;3.80;3.10;;;21.50;99.90;;;;;;5023704;28;20088;-74
2022/06/09 09:03:48;;;;;;;5.85;3.65;;;21.70;99.90;;;;;;5011158;28;20549;-75
2022/06/09 09:06:33;;;;;;;4.85;3.67;;;21.80;99.90;;;;;;5018232;28;20037;-74
2022/06/09 09:09:22;;;;;;;5.28;3.25;;;21.70;99.90;;;;;;5006686;28;20615;-75
2022/06/09 09:11:55;;;;;;;4.82;3.47;;;21.50;99.90;;;;;;5024071;28;20495;-74
2022/06/09 09:14:28;;;;;;;5.00;3.30;;;21.60;99.90;;;;;;5007080;28;20692;-75
2022/06/09 09:17:27;;;;;;;4.15;3.08;;;21.60;99.90;;;;;;5008186;28;20033;-75
2022/06/09 09:20:12;;;;;;;4.63;2.83;;;21.50;99.90;;;;;;5017227;28;20048;-74
2022/06/09 09:22:46;;;;;;;3.28;2.50;;;21.60;99.90;;;;;;5023143;28;20034;-74
2022/06/09 09:25:13;;;;;;;3.35;2.28;;;21.60;99.90;;;;;;5013517;28;20432;-74
2022/06/09 09:28:01;;;;;;;4.53;2.58;;;21.60;99.90;;;;;;5015605;28;20079;-74
2022/06/09 09:30:29;;;;;;;5.40;2.50;;;21.70;99.90;;;;;;5017249;28;20019;-74
2022/06/09 09:32:57;;;;;;;5.45;2.25;;;21.60;99.90;;;;;;5021949;28;20046;-74
2022/06/09 09:35:24;;;;;;;3.45;2.78;;;21.60;99.90;;;;;;5023588;28;20033;-74
2022/06/09 09:37:53;;;;;;;3.03;2.63;;;21.80;99.90;;;;;;5020614;28;20034;-76
2022/06/09 09:40:28;;;;;;;3.95;2.60;;;22.00;99.90;;;;;;5014626;28;20025;-76
2022/06/09 09:42:57;;;;;;;5.85;2.90;;;22.00;99.90;;;;;;5022555;28;20027;-74
2022/06/09 09:45:42;;;;;;;4.90;2.88;;;21.80;99.90;;;;;;5006611;28;20382;-75
2022/06/09 09:48:33;;;;;;;4.07;2.58;;;21.80;99.90;;;;;;5018611;28;20346;-75
2022/06/09 09:51:10;;;;;;;2.65;2.45;;;21.90;99.90;;;;;;5005618;28;20069;-75
2022/06/09 09:53:47;;;;;;;3.95;2.80;;;21.90;99.90;;;;;;5024529;28;20022;-75
2022/06/09 09:56:15;;;;;;;4.50;3.00;;;21.90;99.90;;;;;;5022145;28;20060;-75
2022/06/09 09:58:47;;;;;;;4.25;2.80;;;21.80;99.90;;;;;;5015155;28;20053;-75
2022/06/09 10:01:24;;;;;;;4.55;2.90;;;21.80;99.90;;;;;;5011204;28;20798;-75
2022/06/09 10:09:44;;;;;;;;;;;22.30;99.90;;;;;;5007343;28;20041;-74
2022/06/09 10:12:18;;;;;;;4.65;2.92;;;22.20;99.90;;;;;;5018757;28;19914;-75
2022/06/09 10:14:51;;;;;;;3.85;3.00;;;22.20;99.90;;;;;;5013316;28;20033;-77
2022/06/09 10:17:26;;;;;;;5.63;2.85;;;22.40;99.90;;;;;;5023282;28;20033;-76
2022/06/09 10:20:18;;;;;;;5.10;3.08;;;23.00;97.90;;;;;;5022978;28;20060;-77
2022/06/09 10:22:56;;;;;;;6.47;2.97;;;23.10;98.10;;;;;;5004977;28;20563;-74
2022/06/09 10:25:31;;;;;;;5.00;2.70;;;23.50;95.10;;;;;;5027930;28;20405;-75
2022/06/09 10:28:30;;;;;;;3.70;1.92;;;23.60;91.50;;;;;;5021641;28;20578;-75
2022/06/09 10:31:07;;;;;;;5.75;2.58;;;23.70;92.90;;;;;;5016865;28;20057;-75
2022/06/09 10:33:40;;;;;;;5.25;2.67;;;23.90;92.30;;;;;;5026702;28;20041;-75
2022/06/09 10:36:15;;;;;;;5.28;2.72;;;24.10;91.00;;;;;;5026882;28;20565;-74
2022/06/09 10:38:59;;;;;;;4.18;2.35;;;24.10;95.00;;;;;;5019147;28;20068;-74
2022/06/09 10:41:42;;;;;;;9.05;2.38;;;23.90;95.80;;;;;;5018074;28;20420;-75
2022/06/09 10:44:30;;;;;;;4.82;2.70;;;23.50;99.90;;;;;;5023257;28;20048;-75
2022/06/09 10:56:53;;;;;;;4.43;2.10;;;21.40;97.40;;;;;;5022193;28;20516;-75
2022/06/09 10:59:34;;;;;;;4.53;2.20;;;21.00;99.90;;;;;;5011933;28;20057;-75
2022/06/09 11:02:01;;;;;;;4.25;2.00;;;20.60;96.70;;;;;;5017231;28;20116;-74
2022/06/09 11:04:34;;;;;;;4.55;2.20;;;20.60;98.90;;;;;;5010951;28;20070;-75
2022/06/09 11:07:25;;;;;;;6.18;2.80;;;20.70;99.90;;;;;;5019109;28;20708;-75
2022/06/09 11:10:43;;;;;;;5.32;2.42;;;20.70;99.90;;;;;;5020970;28;20033;-74
2022/06/09 11:13:12;;;;;;;5.95;2.45;;;20.80;99.90;;;;;;5014935;28;20073;-74
2022/06/09 11:16:03;;;;;;;4.25;2.10;;;21.00;99.90;;;;;;5021254;28;20076;-75
2022/06/09 11:19:20;;;;;;;3.47;2.20;;;21.10;99.90;;;;;;5017184;28;20052;-74
2022/06/09 11:21:48;;;;;;;3.15;2.17;;;21.10;99.40;;;;;;5020113;28;20484;-74
2022/06/09 11:24:37;;;;;;;7.05;2.08;;;21.20;99.90;;;;;;5022301;28;20176;-74
2022/06/09 11:27:21;;;;;;;5.47;1.80;;;21.40;99.50;;;;;;5021101;28;20124;-74
2022/06/09 11:30:06;;;;;;;3.33;1.95;;;21.60;98.40;;;;;;5002639;28;20034;-74
2022/06/09 11:33:08;;;;;;;3.95;1.92;;;21.90;96.10;;;;;;5031843;28;20063;-74
2022/06/09 11:35:43;;;;;;;2.70;1.98;;;22.20;94.40;;;;;;5032759;28;20025;-74
2022/06/09 11:38:28;;;;;;;3.85;2.00;;;22.50;93.10;;;;;;5026957;28;20029;-74
2022/06/09 11:41:00;;;;;;;3.22;1.85;;;22.80;91.80;;;;;;5026612;28;20057;-74
2022/06/09 11:43:44;;;;;;;4.03;1.98;;;23.00;91.30;;;;;;5022813;28;20477;-74
2022/06/09 11:46:19;;;;;;;2.40;2.00;;;23.20;92.10;;;;;;5018341;28;20033;-74
2022/06/09 11:48:49;;;;;;;4.03;2.20;;;23.50;90.20;;;;;;5034729;28;20033;-76
2022/06/09 11:51:21;;;;;;;2.92;1.80;;;23.80;88.20;;;;;;5030605;28;20033;-74
2022/06/09 11:53:59;;;;;;;2.83;1.60;;;24.10;85.30;;;;;;5025918;28;20029;-74
2022/06/09 11:56:34;;;;;;;1.88;1.48;;;;;;;;;;5020439;28;20045;-74
2022/06/09 11:59:12;;;;;;;4.45;2.08;;;24.60;99.90;;;;;;5015521;28;20103;-75
2022/06/09 12:01:38;;;;;;;5.63;2.22;;;;;;;;;;5020663;28;20088;-74
2022/06/09 12:04:25;;;;;;;3.05;2.13;;;24.70;77.10;;;;;;5014824;28;20037;-75
2022/06/09 12:07:10;;;;;;;4.97;2.65;;;24.80;76.50;;;;;;5012188;28;20382;-76
2022/06/09 12:09:44;;;;;;;3.70;2.33;;;24.90;72.70;;;;;;5011880;28;20092;-75
2022/06/09 12:12:39;;;;;;;3.80;2.25;;;24.90;72.10;;;;;;5028090;28;20029;-75
2022/06/09 12:15:14;;;;;;;5.88;2.70;;;25.10;74.60;;;;;;5027795;28;20028;-75
2022/06/09 12:18:05;;;;;;;5.20;2.60;;;25.00;70.20;;;;;;5017082;28;20055;-75
2022/06/09 12:20:40;;;;;;;4.85;2.72;;;24.90;72.50;;;;;;5024656;28;20124;-76
2022/06/09 12:23:38;;;;;;;5.75;2.80;;;24.80;71.40;;;;;;5022475;28;20089;-76
2022/06/09 12:26:10;;;;;;;4.15;2.85;;;24.80;73.10;;;;;;5027948;28;20033;-76
2022/06/09 12:29:01;;;;;;;6.15;3.28;;;24.40;73.90;;;;;;5015803;28;20022;-76
2022/06/09 12:31:32;;;;;;;8.57;4.00;;;23.90;77.00;;;;;;5002619;28;20045;-75
2022/06/09 12:34:12;;;;;;;4.80;3.30;;;23.40;79.50;;;;;;5014770;28;20338;-76
2022/06/09 12:36:50;;;;;;;5.60;3.15;;;22.90;77.70;;;;;;5027968;28;20494;-75
2022/06/09 12:39:23;;;;;;;5.88;3.38;;;22.40;79.20;;;;;;5017897;28;20025;-75
2022/06/09 12:41:55;;;;;;;5.72;3.58;;;22.20;80.30;;;;;;5008131;28;20033;-75
2022/06/09 12:44:26;;;;;;;6.43;3.70;;;22.00;81.00;;;;;;5011234;28;20072;-75
2022/06/09 12:47:15;;;;;;;7.00;3.50;;;21.90;83.00;;;;;;5019388;28;20100;-75
2022/06/09 12:49:42;;;;;;;7.38;4.10;;;22.00;85.20;;;;;;5023137;28;20091;-75
2022/06/09 12:52:23;;;;;;;6.07;3.70;;;22.40;86.30;;;;;;5011657;28;20025;-75
2022/06/09 12:54:56;;;;;;;4.68;3.85;;;22.90;84.90;;;;;;5026689;28;20422;-75
2022/06/09 12:57:24;;;;;;;;;;;23.40;84.40;;;;;;5013718;28;20056;-75
2022/06/09 13:00:25;;;;;;;3.75;3.35;;;23.70;83.00;;;;;;5024827;28;19909;-76
2022/06/09 13:02:51;;;;;;;7.28;3.10;;;24.10;80.30;;;;;;5001073;28;20095;-76
2022/06/09 13:05:24;;;;;;;3.35;2.88;;;24.60;78.60;;;;;;5015020;28;20029;-75
2022/06/09 13:07:52;;;;;;;6.68;3.40;;;24.80;79.20;;;;;;5017337;28;20033;-75
2022/06/09 13:10:29;;;;;;;7.03;3.40;;;25.10;89.40;;;;;;5020462;28;20037;-75
2022/06/09 13:13:03;;;;;;;6.30;3.47;;;25.20;75.30;;;;;;5022121;28;20572;-74
2022/06/09 13:15:34;;;;;;;5.25;3.28;;;24.90;92.40;;;;;;5021576;28;20422;-74
2022/06/09 13:18:11;;;;;;;4.47;3.15;;;24.50;95.20;;;;;;5030051;28;20600;-75
2022/06/09 13:20:37;;;;;;;5.60;2.72;;;24.30;71.60;;;;;;5025019;28;20064;-75
2022/06/09 13:23:05;;;;;;;3.03;2.65;;;24.60;72.70;;;;;;5028561;28;20031;-74
2022/06/09 13:25:31;;;;;;;5.18;2.67;;;;;;;;;;5013450;28;20030;-74
2022/06/09 13:27:57;;;;;;;4.55;2.72;;;24.30;99.70;;;;;;5026321;28;20021;-74
2022/06/09 13:30:51;;;;;;;5.03;3.13;;;24.40;96.50;;;;;;5013409;28;20033;-74
2022/06/09 13:33:52;;;;;;;4.93;3.17;;;24.80;96.20;;;;;;5007420;28;20691;-74
2022/06/09 13:36:21;;;;;;;3.28;2.90;;;;;;;;;;5007809;28;20025;-75
2022/06/09 13:38:47;;;;;;;3.85;3.35;;;24.70;98.10;;;;;;5006341;28;20030;-75
2022/06/09 13:41:19;;;;;;;3.42;2.70;;;24.90;96.20;;;;;;5027078;28;20022;-75